createdAt,value
2016-06-27T00:00:58.472Z,35.52
2016-06-27T00:01:59.142Z,35.52
2016-06-27T00:02:59.156Z,35.9
2016-06-27T00:03:59.182Z,35.8
2016-06-27T00:04:59.225Z,35.71
2016-06-27T00:05:58.624Z,35.61
2016-06-27T00:06:59.277Z,35.71
2016-06-27T00:07:59.300Z,35.61
2016-06-27T00:08:59.329Z,35.71
2016-06-27T00:09:58.738Z,35.71
2016-06-27T00:10:58.780Z,35.61
2016-06-27T00:11:59.414Z,36
2016-06-27T00:12:58.820Z,35.9
2016-06-27T00:13:59.466Z,35.8
2016-06-27T00:14:59.485Z,36.19
2016-06-27T00:15:59.524Z,36.09
2016-06-27T00:16:58.935Z,36
2016-06-27T00:17:59.579Z,36.19
2016-06-27T00:18:59.614Z,36.36
2016-06-27T00:19:59.653Z,36.57
2016-06-27T00:20:59.055Z,36.38
2016-06-27T00:21:59.691Z,36.48
2016-06-27T00:22:59.091Z,36.36
2016-06-27T00:23:59.746Z,36.27
2016-06-27T00:24:59.153Z,36.46
2016-06-27T00:25:59.805Z,36.46
2016-06-27T00:26:59.830Z,36.46
2016-06-27T00:27:59.865Z,36.67
2016-06-27T00:28:59.887Z,36.55
2016-06-27T00:29:59.920Z,36.75
2016-06-27T00:30:59.984Z,36.94
2016-06-27T00:31:59.967Z,36.94
2016-06-27T00:32:59.991Z,36.07
2016-06-27T00:33:59.399Z,36.85
2016-06-27T00:35:00.049Z,36.85
2016-06-27T00:36:00.077Z,36.75
2016-06-27T00:36:59.487Z,37.13
2016-06-27T00:38:00.148Z,37.04
2016-06-27T00:38:59.551Z,36.85
2016-06-27T00:40:00.198Z,36.85
2016-06-27T00:40:59.598Z,36.85
2016-06-27T00:41:59.655Z,37.04
2016-06-27T00:43:00.274Z,36.65
2016-06-27T00:44:00.305Z,37.23
2016-06-27T00:45:00.327Z,37.04
2016-06-27T00:45:59.741Z,36.65
2016-06-27T00:46:59.771Z,37.13
2016-06-27T00:48:00.409Z,37.13
2016-06-27T00:48:59.821Z,37.33
2016-06-27T00:50:00.472Z,37.23
2016-06-27T00:50:59.901Z,37.31
2016-06-27T00:51:59.922Z,37.21
2016-06-27T00:52:59.956Z,37.79
2016-06-27T00:54:00.602Z,36.93
2016-06-27T00:55:00.615Z,37.79
2016-06-27T00:56:00.630Z,37.5
2016-06-27T00:57:00.659Z,37.6
2016-06-27T00:58:00.695Z,37.41
2016-06-27T00:59:00.716Z,37.89
2016-06-27T01:00:00.115Z,37.6
2016-06-27T01:01:00.777Z,38.08
2016-06-27T01:02:00.798Z,38.08
2016-06-27T01:03:00.215Z,37.89
2016-06-27T01:04:00.236Z,37.89
2016-06-27T01:05:00.266Z,37.79
2016-06-27T01:06:00.910Z,37.7
2016-06-27T01:07:00.935Z,37.89
2016-06-27T01:08:00.963Z,37.7
2016-06-27T01:09:01.003Z,37.5
2016-06-27T01:10:01.021Z,37.6
2016-06-27T01:11:01.057Z,37.96
2016-06-27T01:12:00.477Z,38.28
2016-06-27T01:13:01.106Z,38.26
2016-06-27T01:14:01.131Z,38.28
2016-06-27T01:15:01.150Z,38.26
2016-06-27T01:16:00.571Z,38.28
2016-06-27T01:17:01.215Z,38.26
2016-06-27T01:18:01.252Z,38.45
2016-06-27T01:19:01.270Z,38.54
2016-06-27T01:20:00.671Z,38.45
2016-06-27T01:21:01.319Z,38.64
2016-06-27T01:22:01.346Z,37.96
2016-06-27T01:23:00.762Z,38.64
2016-06-27T01:24:01.410Z,38.35
2016-06-27T01:25:01.433Z,38.26
2016-06-27T01:26:00.839Z,38.54
2016-06-27T01:27:00.866Z,38.45
2016-06-27T01:28:01.514Z,38.35
2016-06-27T01:29:00.919Z,38.35
2016-06-27T01:30:00.950Z,38.35
2016-06-27T01:31:01.600Z,38.83
2016-06-27T01:32:01.619Z,38.54
2016-06-27T01:33:01.026Z,38.64
2016-06-27T01:34:01.671Z,38.54
2016-06-27T01:35:01.074Z,38.74
2016-06-27T01:36:01.725Z,38.83
2016-06-27T01:37:01.132Z,38.83
2016-06-27T01:38:01.164Z,38.83
2016-06-27T01:39:01.810Z,38.93
2016-06-27T01:40:01.841Z,38.74
2016-06-27T01:41:01.869Z,38.83
2016-06-27T01:42:01.271Z,38.91
2016-06-27T01:43:01.939Z,38.62
2016-06-27T01:44:01.342Z,39.03
2016-06-27T01:45:01.973Z,39.01
2016-06-27T01:46:01.998Z,39.12
2016-06-27T01:47:02.033Z,39.11
2016-06-27T01:48:02.073Z,39.11
2016-06-27T01:49:02.091Z,38.81
2016-06-27T01:50:02.143Z,39.01
2016-06-27T01:51:02.150Z,38.72
2016-06-27T01:52:02.167Z,39.39
2016-06-27T01:53:02.184Z,39.29
2016-06-27T01:54:01.616Z,39.29
2016-06-27T01:55:01.625Z,39.29
2016-06-27T01:56:02.273Z,39.39
2016-06-27T01:57:02.295Z,39.49
2016-06-27T01:58:02.320Z,39.39
2016-06-27T01:59:02.359Z,39.29
2016-06-27T02:00:02.375Z,39.39
2016-06-27T02:01:02.414Z,39.59
2016-06-27T02:02:01.813Z,39.87
2016-06-27T02:03:02.454Z,39.68
2016-06-27T02:04:02.479Z,39.68
2016-06-27T02:05:02.506Z,39.78
2016-06-27T02:06:01.936Z,39.68
2016-06-27T02:07:02.565Z,39.97
2016-06-27T02:08:01.963Z,39.87
2016-06-27T02:09:02.617Z,39.87
2016-06-27T02:10:02.637Z,39.78
2016-06-27T02:11:02.046Z,39.59
2016-06-27T02:12:02.078Z,39.87
2016-06-27T02:13:02.723Z,40.07
2016-06-27T02:14:02.168Z,40.07
2016-06-27T02:15:02.164Z,40.16
2016-06-27T02:16:02.191Z,40.26
2016-06-27T02:17:02.830Z,40.45
2016-06-27T02:18:02.850Z,40.07
2016-06-27T02:19:02.261Z,40.07
2016-06-27T02:20:02.917Z,40.07
2016-06-27T02:21:02.943Z,40.07
2016-06-27T02:22:02.339Z,40.24
2016-06-27T02:23:03.006Z,40.26
2016-06-27T02:24:02.398Z,40.24
2016-06-27T02:25:03.044Z,40.05
2016-06-27T02:26:02.463Z,40.81
2016-06-27T02:27:03.089Z,40.63
2016-06-27T02:28:02.512Z,40.45
2016-06-27T02:29:02.538Z,40.43
2016-06-27T02:30:02.563Z,40.53
2016-06-27T02:31:03.203Z,40.53
2016-06-27T02:32:02.614Z,40.53
2016-06-27T02:33:03.253Z,40.63
2016-06-27T02:34:03.282Z,40.43
2016-06-27T02:35:03.306Z,40.43
2016-06-27T02:36:02.725Z,40.43
2016-06-27T02:37:03.361Z,40.53
2016-06-27T02:38:02.771Z,40.91
2016-06-27T02:39:03.423Z,41.11
2016-06-27T02:40:03.449Z,40.91
2016-06-27T02:41:03.486Z,40.91
2016-06-27T02:42:03.487Z,41.01
2016-06-27T02:43:03.520Z,41.11
2016-06-27T02:44:02.933Z,40.91
2016-06-27T02:45:02.955Z,41.11
2016-06-27T02:46:03.593Z,40.72
2016-06-27T02:47:03.005Z,41.11
2016-06-27T02:48:03.042Z,41.2
2016-06-27T02:49:03.070Z,41.3
2016-06-27T02:50:03.707Z,41.18
2016-06-27T02:51:03.108Z,40.91
2016-06-27T02:52:03.760Z,41.11
2016-06-27T02:53:03.781Z,41.11
2016-06-27T02:54:03.195Z,41.3
2016-06-27T02:55:03.217Z,41.11
2016-06-27T02:56:03.865Z,41.2
2016-06-27T02:57:03.270Z,41.28
2016-06-27T02:58:03.913Z,41.18
2016-06-27T02:59:03.945Z,41.28
2016-06-27T03:00:03.976Z,40.99
2016-06-27T03:01:03.375Z,41.28
2016-06-27T03:02:04.027Z,41.08
2016-06-27T03:03:04.046Z,41.08
2016-06-27T03:04:04.074Z,40.99
2016-06-27T03:05:03.482Z,41.47
2016-06-27T03:06:04.121Z,41.66
2016-06-27T03:07:03.531Z,41.95
2016-06-27T03:08:03.566Z,41.76
2016-06-27T03:09:03.603Z,41.86
2016-06-27T03:10:04.229Z,41.86
2016-06-27T03:11:04.257Z,41.86
2016-06-27T03:12:03.666Z,41.86
2016-06-27T03:13:04.316Z,41.95
2016-06-27T03:14:03.723Z,42.05
2016-06-27T03:15:04.373Z,41.95
2016-06-27T03:16:04.383Z,42.14
2016-06-27T03:17:04.425Z,42.05
2016-06-27T03:18:04.439Z,42.24
2016-06-27T03:19:03.849Z,42.14
2016-06-27T03:20:03.873Z,41.95
2016-06-27T03:21:04.534Z,42.05
2016-06-27T03:22:03.922Z,42.24
2016-06-27T03:23:03.943Z,42.14
2016-06-27T03:24:04.612Z,42.24
2016-06-27T03:25:04.026Z,42.33
2016-06-27T03:26:04.653Z,42.43
2016-06-27T03:27:04.050Z,42.43
2016-06-27T03:28:04.095Z,42.24
2016-06-27T03:29:04.136Z,42.53
2016-06-27T03:30:04.756Z,42.53
2016-06-27T03:31:04.795Z,42.53
2016-06-27T03:32:04.810Z,42.43
2016-06-27T03:33:04.884Z,42.82
2016-06-27T03:34:04.865Z,42.33
2016-06-27T03:35:04.269Z,42.63
2016-06-27T03:36:04.913Z,42.63
2016-06-27T03:37:04.943Z,42.91
2016-06-27T03:38:04.981Z,42.82
2016-06-27T03:39:04.987Z,42.82
2016-06-27T03:40:04.394Z,42.72
2016-06-27T03:41:04.433Z,42.72
2016-06-27T03:42:04.460Z,42.72
2016-06-27T03:43:04.470Z,42.53
2016-06-27T03:44:05.120Z,42.63
2016-06-27T03:45:05.159Z,42.53
2016-06-27T03:46:04.561Z,42.63
2016-06-27T03:47:05.203Z,42.82
2016-06-27T03:48:04.608Z,42.91
2016-06-27T03:49:05.251Z,42.82
2016-06-27T03:50:04.679Z,43.01
2016-06-27T03:51:05.306Z,43.01
2016-06-27T03:52:05.327Z,43.4
2016-06-27T03:53:04.723Z,43.3
2016-06-27T03:54:05.382Z,43.49
2016-06-27T03:55:05.412Z,43.11
2016-06-27T03:56:05.430Z,43.4
2016-06-27T03:57:05.475Z,43.2
2016-06-27T03:58:05.495Z,43.4
2016-06-27T03:59:04.880Z,43.4
2016-06-27T04:00:05.539Z,43.49
2016-06-27T04:01:04.948Z,43.11
2016-06-27T04:02:05.616Z,43.49
2016-06-27T04:03:05.003Z,43.11
2016-06-27T04:04:05.648Z,43.2
2016-06-27T04:05:05.043Z,43.68
2016-06-27T04:06:05.691Z,43.4
2016-06-27T04:07:05.723Z,43.49
2016-06-27T04:08:05.735Z,43.49
2016-06-27T04:09:05.149Z,43.4
2016-06-27T04:10:05.180Z,43.59
2016-06-27T04:11:05.847Z,43.49
2016-06-27T04:12:05.227Z,43.2
2016-06-27T04:13:05.481Z,43.68
2016-06-27T04:14:05.896Z,43.49
2016-06-27T04:15:05.308Z,43.88
2016-06-27T04:16:05.936Z,43.4
2016-06-27T04:17:05.362Z,43.49
2016-06-27T04:18:06.003Z,43.49
2016-06-27T04:19:06.044Z,43.78
2016-06-27T04:20:06.058Z,43.59
2016-06-27T04:21:06.087Z,43.11
2016-06-27T04:22:06.100Z,43.3
2016-06-27T04:23:06.126Z,43.3
2016-06-27T04:24:05.541Z,43.2
2016-06-27T04:25:06.186Z,43.01
2016-06-27T04:26:06.208Z,43.11
2016-06-27T04:27:06.235Z,43.3
2016-06-27T04:28:06.262Z,43.3
2016-06-27T04:29:06.285Z,43.01
2016-06-27T04:30:05.691Z,43.2
2016-06-27T04:31:05.715Z,43.01
2016-06-27T04:32:05.745Z,43.2
2016-06-27T04:33:05.772Z,43.3
2016-06-27T04:34:06.425Z,43.3
2016-06-27T04:35:06.446Z,43.2
2016-06-27T04:36:06.465Z,43.3
2016-06-27T04:37:06.494Z,43.11
2016-06-27T04:38:06.524Z,43.2
2016-06-27T04:39:06.571Z,43.59
2016-06-27T04:40:05.955Z,43.49
2016-06-27T04:41:06.593Z,43.4
2016-06-27T04:42:06.623Z,43.49
2016-06-27T04:43:06.645Z,43.49
2016-06-27T04:44:06.675Z,43.3
2016-06-27T04:45:06.082Z,43.59
2016-06-27T04:46:06.111Z,43.2
2016-06-27T04:47:06.139Z,43.2
2016-06-27T04:48:06.774Z,43.3
2016-06-27T04:49:06.181Z,43.4
2016-06-27T04:50:06.216Z,43.4
2016-06-27T04:51:06.851Z,43.51
2016-06-27T04:52:06.882Z,43.49
2016-06-27T04:53:06.907Z,43.59
2016-06-27T04:54:06.938Z,43.49
2016-06-27T04:55:07.070Z,43.61
2016-06-27T04:56:06.995Z,43.61
2016-06-27T04:57:07.017Z,43.4
2016-06-27T04:58:07.049Z,43.4
2016-06-27T04:59:07.057Z,43.3
2016-06-27T05:00:06.462Z,43.51
2016-06-27T05:01:07.111Z,43.32
2016-06-27T05:02:07.134Z,43.32
2016-06-27T05:03:06.548Z,43.51
2016-06-27T05:04:07.197Z,43.51
2016-06-27T05:05:07.227Z,43.23
2016-06-27T05:06:07.249Z,43.13
2016-06-27T05:07:07.279Z,43.51
2016-06-27T05:08:06.675Z,43.8
2016-06-27T05:09:06.707Z,43.51
2016-06-27T05:10:07.348Z,43.51
2016-06-27T05:11:06.758Z,43.8
2016-06-27T05:12:06.789Z,43.51
2016-06-27T05:13:07.423Z,43.51
2016-06-27T05:14:06.836Z,43.61
2016-06-27T05:15:06.859Z,43.51
2016-06-27T05:16:06.887Z,43.51
2016-06-27T05:17:06.908Z,42.93
2016-06-27T05:18:07.561Z,43.51
2016-06-27T05:19:07.577Z,43.51
2016-06-27T05:20:07.612Z,43.23
2016-06-27T05:21:07.630Z,43.61
2016-06-27T05:22:07.666Z,43.23
2016-06-27T05:23:07.685Z,43.32
2016-06-27T05:24:07.094Z,43.13
2016-06-27T05:25:07.751Z,43.41
2016-06-27T05:26:07.148Z,43.51
2016-06-27T05:27:07.176Z,43.03
2016-06-27T05:28:07.820Z,43.8
2016-06-27T05:29:09.322Z,43.61
2016-06-27T05:30:09.334Z,43.71
2016-06-27T05:31:07.897Z,43.32
2016-06-27T05:32:07.306Z,43.41
2016-06-27T05:33:07.941Z,43.51
2016-06-27T05:34:07.355Z,43.51
2016-06-27T05:35:07.372Z,43.61
2016-06-27T05:36:07.402Z,43.61
2016-06-27T05:37:07.422Z,43.61
2016-06-27T05:38:07.459Z,43.23
2016-06-27T05:39:08.107Z,43.61
2016-06-27T05:40:07.502Z,43.41
2016-06-27T05:41:08.155Z,43.9
2016-06-27T05:42:07.572Z,43.51
2016-06-27T05:43:07.587Z,43.23
2016-06-27T05:44:07.629Z,43.15
2016-06-27T05:45:08.252Z,43.05
2016-06-27T05:46:07.660Z,43.24
2016-06-27T05:47:07.695Z,43.51
2016-06-27T05:48:07.715Z,43.54
2016-06-27T05:49:07.751Z,43.34
2016-06-27T05:50:07.784Z,43.05
2016-06-27T05:51:08.412Z,43.05
2016-06-27T05:52:08.445Z,43.34
2016-06-27T05:53:07.851Z,43.24
2016-06-27T05:54:08.486Z,43.44
2016-06-27T05:55:07.901Z,43.82
2016-06-27T05:56:08.543Z,43.92
2016-06-27T05:57:08.570Z,43.73
2016-06-27T05:58:08.587Z,42.86
2016-06-27T05:59:08.638Z,42.86
2016-06-27T06:00:08.650Z,42.96
2016-06-27T06:01:08.049Z,42.96
2016-06-27T06:02:08.707Z,42.57
2016-06-27T06:03:08.732Z,42.57
2016-06-27T06:04:08.775Z,43.05
2016-06-27T06:05:08.775Z,43.05
2016-06-27T06:06:08.198Z,42.86
2016-06-27T06:07:08.842Z,42.96
2016-06-27T06:08:08.866Z,43.15
2016-06-27T06:09:08.885Z,42.59
2016-06-27T06:10:08.291Z,42.69
2016-06-27T06:11:08.935Z,42.38
2016-06-27T06:12:08.966Z,42.28
2016-06-27T06:13:08.370Z,42.4
2016-06-27T06:14:08.402Z,42.49
2016-06-27T06:15:08.426Z,42.21
2016-06-27T06:16:09.072Z,42.21
2016-06-27T06:17:09.098Z,42.02
2016-06-27T06:18:08.509Z,42.02
2016-06-27T06:19:09.148Z,42.21
2016-06-27T06:20:08.556Z,42.02
2016-06-27T06:21:09.214Z,42.21
2016-06-27T06:22:09.327Z,41.82
2016-06-27T06:23:09.255Z,42.11
2016-06-27T06:24:09.272Z,41.72
2016-06-27T06:25:09.314Z,41.92
2016-06-27T06:26:08.713Z,41.92
2016-06-27T06:27:09.363Z,41.44
2016-06-27T06:28:09.387Z,41.53
2016-06-27T06:29:09.413Z,41.72
2016-06-27T06:30:08.818Z,41.14
2016-06-27T06:31:08.847Z,41.05
2016-06-27T06:32:09.493Z,41.14
2016-06-27T06:33:09.523Z,41.24
2016-06-27T06:34:09.543Z,41.24
2016-06-27T06:35:09.584Z,41.27
2016-06-27T06:36:08.983Z,41.24
2016-06-27T06:37:09.631Z,41.27
2016-06-27T06:38:09.652Z,41.17
2016-06-27T06:39:09.756Z,41.24
2016-06-27T06:40:09.708Z,41.27
2016-06-27T06:41:09.730Z,41.24
2016-06-27T06:42:09.752Z,41.44
2016-06-27T06:43:09.786Z,41.27
2016-06-27T06:44:09.194Z,41.07
2016-06-27T06:45:09.829Z,41.36
2016-06-27T06:46:09.950Z,41.17
2016-06-27T06:47:09.976Z,41.36
2016-06-27T06:48:09.916Z,41.46
2016-06-27T06:49:09.369Z,41.27
2016-06-27T06:50:09.980Z,41.17
2016-06-27T06:51:10.000Z,41.27
2016-06-27T06:52:10.030Z,41.27
2016-06-27T06:53:09.433Z,41.27
2016-06-27T06:54:10.083Z,41.27
2016-06-27T06:55:09.486Z,41.17
2016-06-27T06:56:10.144Z,41.17
2016-06-27T06:57:10.162Z,41.55
2016-06-27T06:58:09.566Z,41.07
2016-06-27T06:59:10.216Z,41.17
2016-06-27T07:00:09.627Z,41.46
2016-06-27T07:01:09.641Z,42.03
2016-06-27T07:02:09.668Z,41.94
2016-06-27T07:03:10.330Z,41.94
2016-06-27T07:04:09.814Z,41.94
2016-06-27T07:05:09.824Z,41.84
2016-06-27T07:06:10.689Z,41.84
2016-06-27T07:07:10.529Z,41.94
2016-06-27T07:08:09.882Z,41.94
2016-06-27T07:09:10.500Z,41.84
2016-06-27T07:10:10.511Z,41.65
2016-06-27T07:11:09.922Z,41.17
2016-06-27T07:12:10.562Z,41.27
2016-06-27T07:13:10.593Z,41.17
2016-06-27T07:14:10.010Z,41.07
2016-06-27T07:15:10.027Z,41.27
2016-06-27T07:16:10.664Z,41.36
2016-06-27T07:17:10.704Z,41.17
2016-06-27T07:18:10.717Z,41.28
2016-06-27T07:19:10.748Z,41.19
2016-06-27T07:20:10.778Z,40.8
2016-06-27T07:21:10.804Z,40.99
2016-06-27T07:22:10.214Z,40.9
2016-06-27T07:23:10.849Z,40.99
2016-06-27T07:24:10.265Z,41.09
2016-06-27T07:25:10.921Z,40.9
2016-06-27T07:26:10.945Z,40.8
2016-06-27T07:27:10.974Z,40.99
2016-06-27T07:28:10.367Z,40.99
2016-06-27T07:29:10.391Z,41.09
2016-06-27T07:30:10.433Z,41.09
2016-06-27T07:31:10.449Z,41.09
2016-06-27T07:32:10.483Z,41.02
2016-06-27T07:33:10.564Z,41.2
2016-06-27T07:34:10.536Z,40.63
2016-06-27T07:35:10.561Z,40.53
2016-06-27T07:36:11.203Z,40.72
2016-06-27T07:37:11.234Z,40.63
2016-06-27T07:38:11.265Z,40.63
2016-06-27T07:39:11.299Z,40.44
2016-06-27T07:40:11.311Z,40.24
2016-06-27T07:41:11.350Z,40.15
2016-06-27T07:42:10.750Z,40.17
2016-06-27T07:43:11.402Z,40.36
2016-06-27T07:44:11.429Z,39.87
2016-06-27T07:45:11.442Z,40.17
2016-06-27T07:46:10.867Z,40.17
2016-06-27T07:47:11.505Z,39.97
2016-06-27T07:48:11.528Z,39.49
2016-06-27T07:49:11.579Z,39.61
2016-06-27T07:50:11.597Z,39.41
2016-06-27T07:51:10.991Z,39.41
2016-06-27T07:52:11.715Z,39.03
2016-06-27T07:53:11.747Z,38.93
2016-06-27T07:54:11.075Z,39.03
2016-06-27T07:55:11.105Z,38.76
2016-06-27T07:56:11.132Z,38.64
2016-06-27T07:57:12.150Z,38.54
2016-06-27T07:58:11.192Z,38.85
2016-06-27T07:59:11.829Z,38.66
2016-06-27T08:00:11.239Z,38.66
2016-06-27T08:01:11.369Z,38.66
2016-06-27T08:02:11.983Z,37.98
2016-06-27T08:03:11.999Z,38.37
2016-06-27T08:04:11.546Z,38.37
2016-06-27T08:05:12.179Z,38.18
2016-06-27T08:06:11.574Z,38.18
2016-06-27T08:07:11.578Z,37.6
2016-06-27T08:08:11.584Z,37.79
2016-06-27T08:09:12.254Z,37.23
2016-06-27T08:10:12.247Z,38.2
2016-06-27T08:11:11.642Z,38
2016-06-27T08:12:12.266Z,37.71
2016-06-27T08:13:12.273Z,37.62
2016-06-27T08:14:12.284Z,37.81
2016-06-27T08:15:11.737Z,37.9
2016-06-27T08:16:12.369Z,37.71
2016-06-27T08:17:11.787Z,37.42
2016-06-27T08:18:12.411Z,37.54
2016-06-27T08:19:12.422Z,37.34
2016-06-27T08:20:12.420Z,36.94
2016-06-27T08:21:11.869Z,36.86
2016-06-27T08:22:12.477Z,37.24
2016-06-27T08:23:11.874Z,36.86
2016-06-27T08:24:12.524Z,36.66
2016-06-27T08:25:11.921Z,36.57
2016-06-27T08:26:11.965Z,36.38
2016-06-27T08:27:11.986Z,36.47
2016-06-27T08:28:12.016Z,35.7
2016-06-27T08:29:12.658Z,35.6
2016-06-27T08:30:12.106Z,35.7
2016-06-27T08:31:12.092Z,35.8
2016-06-27T08:32:12.740Z,35.99
2016-06-27T08:33:12.794Z,36
2016-06-27T08:34:12.798Z,35.5
2016-06-27T08:35:12.839Z,35.52
2016-06-27T08:36:12.245Z,35.62
2016-06-27T08:37:12.887Z,35.52
2016-06-27T08:38:12.294Z,35.13
2016-06-27T08:39:12.940Z,35.23
2016-06-27T08:40:13.399Z,35.15
2016-06-27T08:41:12.991Z,34.84
2016-06-27T08:42:12.417Z,34.28
2016-06-27T08:43:12.439Z,34.28
2016-06-27T08:44:13.078Z,33.7
2016-06-27T08:45:13.106Z,34.19
2016-06-27T08:46:12.514Z,33.7
2016-06-27T08:47:13.168Z,33.81
2016-06-27T08:48:12.605Z,33.42
2016-06-27T08:49:12.602Z,33.51
2016-06-27T08:50:13.237Z,33.23
2016-06-27T08:51:13.281Z,32.36
2016-06-27T08:52:12.693Z,32.46
2016-06-27T08:53:13.354Z,32.75
2016-06-27T08:54:13.393Z,32.07
2016-06-27T08:55:13.906Z,32.07
2016-06-27T08:56:12.819Z,32.36
2016-06-27T08:57:13.453Z,32.47
2016-06-27T08:58:12.855Z,32.47
2016-06-27T08:59:13.510Z,32.09
2016-06-27T09:00:12.925Z,31.6
2016-06-27T09:01:13.559Z,31.6
2016-06-27T09:02:13.588Z,31.41
2016-06-27T09:03:12.998Z,31.41
2016-06-27T09:04:13.035Z,31.6
2016-06-27T09:05:13.676Z,30.82
2016-06-27T09:06:13.089Z,30.92
2016-06-27T09:07:13.115Z,30.74
2016-06-27T09:08:13.758Z,30.55
2016-06-27T09:09:13.177Z,30.65
2016-06-27T09:10:13.196Z,30.45
2016-06-27T09:11:13.228Z,30.16
2016-06-27T09:12:13.878Z,29.87
2016-06-27T09:13:13.907Z,29.77
2016-06-27T09:14:13.322Z,29.87
2016-06-27T09:15:13.971Z,30.07
2016-06-27T09:16:14.026Z,29.68
2016-06-27T09:17:14.026Z,29.87
2016-06-27T09:18:13.433Z,29.97
2016-06-27T09:19:14.081Z,29.6
2016-06-27T09:20:14.111Z,29.98
2016-06-27T09:21:13.528Z,29.5
2016-06-27T09:22:14.166Z,29.79
2016-06-27T09:23:13.581Z,29.79
2016-06-27T09:24:14.231Z,29.69
2016-06-27T09:25:14.255Z,29.69
2016-06-27T09:26:14.289Z,29.6
2016-06-27T09:27:14.310Z,29.5
2016-06-27T09:28:14.354Z,29.4
2016-06-27T09:29:13.754Z,29.12
2016-06-27T09:30:13.785Z,29.41
2016-06-27T09:31:14.432Z,29.32
2016-06-27T09:32:14.455Z,29.12
2016-06-27T09:33:14.502Z,28.83
2016-06-27T09:34:13.903Z,29.22
2016-06-27T09:35:13.937Z,28.64
2016-06-27T09:36:14.578Z,28.54
2016-06-27T09:37:13.985Z,28.55
2016-06-27T09:38:14.019Z,28.55
2016-06-27T09:39:14.674Z,28.65
2016-06-27T09:40:14.083Z,28.45
2016-06-27T09:41:14.112Z,28.75
2016-06-27T09:42:14.139Z,28.65
2016-06-27T09:43:14.806Z,28.75
2016-06-27T09:44:14.196Z,28.65
2016-06-27T09:45:14.231Z,28.75
2016-06-27T09:46:14.874Z,28.66
2016-06-27T09:47:14.297Z,28.57
2016-06-27T09:48:14.941Z,28.38
2016-06-27T09:49:14.354Z,28.18
2016-06-27T09:50:14.985Z,27.98
2016-06-27T09:51:14.414Z,28.09
2016-06-27T09:52:15.054Z,28
2016-06-27T09:53:15.082Z,27.8
2016-06-27T09:54:14.496Z,27.7
2016-06-27T09:55:15.159Z,27.32
2016-06-27T09:56:14.569Z,27.04
2016-06-27T09:57:15.200Z,27.14
2016-06-27T09:58:15.230Z,27.33
2016-06-27T09:59:15.261Z,27.53
2016-06-27T10:00:15.302Z,27.33
2016-06-27T10:01:14.722Z,27.15
2016-06-27T10:02:15.358Z,26.86
2016-06-27T10:03:14.772Z,27.25
2016-06-27T10:04:14.799Z,27.15
2016-06-27T10:05:14.831Z,27.45
2016-06-27T10:06:14.862Z,27.06
2016-06-27T10:07:14.888Z,27.06
2016-06-27T10:08:15.562Z,26.68
2016-06-27T10:09:15.575Z,26.39
2016-06-27T10:10:15.006Z,26.3
2016-06-27T10:11:15.044Z,26.79
2016-06-27T10:12:15.038Z,26.3
2016-06-27T10:13:15.076Z,25.92
2016-06-27T10:14:15.720Z,25.92
2016-06-27T10:15:15.758Z,25.34
2016-06-27T10:16:15.773Z,25.24
2016-06-27T10:17:15.810Z,25.14
2016-06-27T10:18:15.842Z,24.95
2016-06-27T10:19:15.874Z,24.38
2016-06-27T10:20:15.905Z,24.18
2016-06-27T10:21:15.316Z,23.89
2016-06-27T10:22:15.965Z,24.57
2016-06-27T10:23:15.386Z,24.39
2016-06-27T10:24:15.425Z,24.19
2016-06-27T10:25:16.058Z,24.29
2016-06-27T10:26:15.474Z,24.29
2016-06-27T10:27:16.127Z,24.29
2016-06-27T10:28:16.163Z,23.91
2016-06-27T10:29:16.177Z,23.82
2016-06-27T10:30:16.221Z,23.52
2016-06-27T10:31:15.632Z,23.83
2016-06-27T10:32:15.664Z,23.14
2016-06-27T10:33:16.319Z,23.34
2016-06-27T10:34:16.341Z,22.75
2016-06-27T10:35:15.764Z,23.14
2016-06-27T10:36:16.425Z,22.86
2016-06-27T10:37:16.442Z,22.47
2016-06-27T10:38:15.856Z,22.76
2016-06-27T10:39:16.497Z,22.17
2016-06-27T10:40:15.919Z,22.17
2016-06-27T10:41:16.566Z,22.56
2016-06-27T10:42:15.990Z,22.66
2016-06-27T10:43:16.012Z,22.08
2016-06-27T10:44:16.043Z,22.17
2016-06-27T10:45:16.703Z,21.49
2016-06-27T10:46:16.105Z,21.78
2016-06-27T10:47:16.769Z,21.6
2016-06-27T10:48:16.798Z,21.41
2016-06-27T10:49:16.838Z,21.39
2016-06-27T10:50:16.237Z,21.41
2016-06-27T10:51:16.905Z,21.1
2016-06-27T10:52:16.930Z,21.1
2016-06-27T10:53:16.976Z,21
2016-06-27T10:54:16.985Z,21.59
2016-06-27T10:55:17.018Z,21.69
2016-06-27T10:56:17.054Z,21.3
2016-06-27T10:57:16.479Z,21.88
2016-06-27T10:58:17.131Z,21.88
2016-06-27T10:59:17.148Z,21.88
2016-06-27T11:00:16.565Z,21.98
2016-06-27T11:01:17.324Z,21.98
2016-06-27T11:02:16.625Z,22.09
2016-06-27T11:03:17.272Z,21.88
2016-06-27T11:04:17.323Z,21.41
2016-06-27T11:05:17.351Z,21.41
2016-06-27T11:06:17.443Z,21.41
2016-06-27T11:07:16.807Z,21.31
2016-06-27T11:08:16.823Z,21.32
2016-06-27T11:09:17.507Z,21.11
2016-06-27T11:10:17.550Z,20.63
2016-06-27T11:11:17.538Z,20.73
2016-06-27T11:12:16.952Z,20.94
2016-06-27T11:13:17.594Z,20.35
2016-06-27T11:14:17.640Z,20.45
2016-06-27T11:15:17.048Z,20.35
2016-06-27T11:16:17.717Z,19.96
2016-06-27T11:17:17.113Z,19.67
2016-06-27T11:18:17.154Z,19.67
2016-06-27T11:19:17.810Z,19.18
2016-06-27T11:20:17.840Z,19.18
2016-06-27T11:21:17.866Z,18.99
2016-06-27T11:22:17.302Z,19.09
2016-06-27T11:23:17.924Z,18.5
2016-06-27T11:24:17.355Z,18.79
2016-06-27T11:25:17.390Z,18.6
2016-06-27T11:26:18.029Z,18.7
2016-06-27T11:27:18.054Z,18.7
2016-06-27T11:28:17.500Z,18.7
2016-06-27T11:29:17.521Z,18.7
2016-06-27T11:30:18.170Z,18.6
2016-06-27T11:31:17.576Z,18.7
2016-06-27T11:32:18.229Z,18.7
2016-06-27T11:33:18.266Z,18.21
2016-06-27T11:34:18.298Z,18.4
2016-06-27T11:35:17.710Z,18.6
2016-06-27T11:36:17.743Z,18.4
2016-06-27T11:37:18.466Z,18.5
2016-06-27T11:38:18.436Z,18.4
2016-06-27T11:39:18.488Z,18.5
2016-06-27T11:40:17.880Z,18.3
2016-06-27T11:41:18.539Z,18.3
2016-06-27T11:42:18.560Z,18.4
2016-06-27T11:43:18.004Z,18.3
2016-06-27T11:44:18.011Z,18.4
2016-06-27T11:45:18.668Z,18.5
2016-06-27T11:46:18.083Z,18.7
2016-06-27T11:47:18.811Z,18.4
2016-06-27T11:48:18.771Z,18.31
2016-06-27T11:49:18.800Z,18.7
2016-06-27T11:50:18.849Z,18.31
2016-06-27T11:51:18.881Z,18.51
2016-06-27T11:52:18.284Z,18.41
2016-06-27T11:53:18.325Z,18.31
2016-06-27T11:54:18.970Z,18.42
2016-06-27T11:55:18.999Z,18.52
2016-06-27T11:56:19.044Z,18.13
2016-06-27T11:57:19.086Z,17.74
2016-06-27T11:58:19.110Z,17.35
2016-06-27T11:59:18.524Z,17.25
2016-06-27T12:00:19.191Z,16.86
2016-06-27T12:01:18.605Z,16.96
2016-06-27T12:02:18.630Z,16.76
2016-06-27T12:03:18.658Z,16.86
2016-06-27T12:04:19.306Z,16.66
2016-06-27T12:05:19.351Z,16.95
2016-06-27T12:06:18.762Z,16.86
2016-06-27T12:07:19.410Z,16.86
2016-06-27T12:08:19.026Z,16.75
2016-06-27T12:09:18.866Z,16.86
2016-06-27T12:10:19.594Z,16.66
2016-06-27T12:11:18.928Z,16.36
2016-06-27T12:12:19.583Z,16.56
2016-06-27T12:13:19.619Z,16.75
2016-06-27T12:14:19.668Z,16.75
2016-06-27T12:15:19.687Z,16.56
2016-06-27T12:16:19.719Z,16.64
2016-06-27T12:17:19.754Z,16.64
2016-06-27T12:18:19.791Z,16.64
2016-06-27T12:19:19.826Z,16.64
2016-06-27T12:20:19.258Z,16.75
2016-06-27T12:21:19.911Z,16.25
2016-06-27T12:22:19.939Z,15.96
2016-06-27T12:23:19.976Z,16.06
2016-06-27T12:24:19.997Z,15.96
2016-06-27T12:25:20.039Z,16.64
2016-06-27T12:26:20.065Z,16.35
2016-06-27T12:27:19.484Z,16.16
2016-06-27T12:28:20.127Z,16.35
2016-06-27T12:29:20.166Z,16.16
2016-06-27T12:30:20.219Z,16.66
2016-06-27T12:31:19.612Z,16.75
2016-06-27T12:32:20.275Z,16.56
2016-06-27T12:33:20.306Z,16.56
2016-06-27T12:34:20.339Z,16.46
2016-06-27T12:35:19.760Z,16.66
2016-06-27T12:36:19.791Z,16.06
2016-06-27T12:37:19.829Z,16.27
2016-06-27T12:38:20.484Z,16.37
2016-06-27T12:39:20.522Z,16.17
2016-06-27T12:40:19.936Z,16.08
2016-06-27T12:41:20.582Z,15.88
2016-06-27T12:42:20.821Z,15.98
2016-06-27T12:43:20.037Z,15.98
2016-06-27T12:44:20.690Z,15.48
2016-06-27T12:45:20.113Z,15.88
2016-06-27T12:46:20.141Z,15.98
2016-06-27T12:47:20.843Z,15.88
2016-06-27T12:48:20.828Z,16.17
2016-06-27T12:49:20.865Z,16.08
2016-06-27T12:50:20.897Z,15.4
2016-06-27T12:51:20.305Z,15.5
2016-06-27T12:52:20.374Z,15.5
2016-06-27T12:53:20.379Z,15.5
2016-06-27T12:54:21.057Z,15.4
2016-06-27T12:55:20.455Z,15.5
2016-06-27T12:56:21.623Z,15.69
2016-06-27T12:57:20.525Z,15.01